sensor_id;sensor_type;location;lat;lon;timestamp;P1;durP1;ratioP1;P2;durP2;ratioP2
42118;SDS011;27783;42.782;23.274;2023-07-31T00:01:19;4.28;;;3.97;;
42118;SDS011;27783;42.782;23.274;2023-07-31T00:03:45;4.63;;;4.22;;
42118;SDS011;27783;42.782;23.274;2023-07-31T00:06:13;3.72;;;3.40;;
42118;SDS011;27783;42.782;23.274;2023-07-31T00:08:39;4.55;;;4.22;;
42118;SDS011;27783;42.782;23.274;2023-07-31T00:11:04;4.20;;;3.90;;
42118;SDS011;27783;42.782;23.274;2023-07-31T00:13:30;6.35;;;4.65;;
42118;SDS011;27783;42.782;23.274;2023-07-31T00:15:55;4.50;;;4.20;;
42118;SDS011;27783;42.782;23.274;2023-07-31T00:18:20;4.85;;;4.25;;
42118;SDS011;27783;42.782;23.274;2023-07-31T00:20:48;4.82;;;4.43;;
42118;SDS011;27783;42.782;23.274;2023-07-31T00:23:20;5.38;;;4.97;;
42118;SDS011;27783;42.782;23.274;2023-07-31T00:25:47;7.03;;;4.60;;
42118;SDS011;27783;42.782;23.274;2023-07-31T00:28:12;5.50;;;5.00;;
42118;SDS011;27783;42.782;23.274;2023-07-31T00:30:39;4.38;;;4.07;;
42118;SDS011;27783;42.782;23.274;2023-07-31T00:33:05;4.82;;;4.43;;
42118;SDS011;27783;42.782;23.274;2023-07-31T00:35:30;5.55;;;4.65;;
42118;SDS011;27783;42.782;23.274;2023-07-31T00:37:57;4.68;;;4.38;;
42118;SDS011;27783;42.782;23.274;2023-07-31T00:40:34;5.03;;;4.63;;
42118;SDS011;27783;42.782;23.274;2023-07-31T00:43:21;5.13;;;4.63;;
42118;SDS011;27783;42.782;23.274;2023-07-31T00:45:48;5.03;;;4.63;;
42118;SDS011;27783;42.782;23.274;2023-07-31T00:48:15;5.20;;;4.80;;
42118;SDS011;27783;42.782;23.274;2023-07-31T00:50:40;5.53;;;5.13;;
42118;SDS011;27783;42.782;23.274;2023-07-31T00:53:06;5.55;;;5.18;;
42118;SDS011;27783;42.782;23.274;2023-07-31T00:55:33;5.43;;;4.93;;
42118;SDS011;27783;42.782;23.274;2023-07-31T00:58:00;5.05;;;4.70;;
42118;SDS011;27783;42.782;23.274;2023-07-31T01:00:26;6.57;;;5.35;;
42118;SDS011;27783;42.782;23.274;2023-07-31T01:02:53;6.45;;;5.85;;
42118;SDS011;27783;42.782;23.274;2023-07-31T01:11:28;6.32;;;5.75;;
42118;SDS011;27783;42.782;23.274;2023-07-31T01:16:24;6.75;;;6.25;;
42118;SDS011;27783;42.782;23.274;2023-07-31T01:18:51;7.25;;;6.75;;
42118;SDS011;27783;42.782;23.274;2023-07-31T01:24:23;8.48;;;7.63;;
42118;SDS011;27783;42.782;23.274;2023-07-31T01:27:02;8.88;;;8.20;;
42118;SDS011;27783;42.782;23.274;2023-07-31T01:29:34;8.98;;;8.32;;
42118;SDS011;27783;42.782;23.274;2023-07-31T01:32:10;9.70;;;9.00;;
42118;SDS011;27783;42.782;23.274;2023-07-31T01:34:38;10.00;;;9.18;;
42118;SDS011;27783;42.782;23.274;2023-07-31T01:37:18;10.00;;;9.32;;
42118;SDS011;27783;42.782;23.274;2023-07-31T01:39:50;10.75;;;10.02;;
42118;SDS011;27783;42.782;23.274;2023-07-31T01:42:18;10.60;;;9.90;;
42118;SDS011;27783;42.782;23.274;2023-07-31T01:44:49;10.80;;;10.00;;
42118;SDS011;27783;42.782;23.274;2023-07-31T01:47:15;10.88;;;10.07;;
42118;SDS011;27783;42.782;23.274;2023-07-31T01:49:41;13.77;;;12.57;;
42118;SDS011;27783;42.782;23.274;2023-07-31T01:52:08;12.32;;;11.25;;
42118;SDS011;27783;42.782;23.274;2023-07-31T01:54:34;10.40;;;9.65;;
42118;SDS011;27783;42.782;23.274;2023-07-31T01:57:05;11.10;;;10.10;;
42118;SDS011;27783;42.782;23.274;2023-07-31T01:59:33;11.48;;;10.73;;
42118;SDS011;27783;42.782;23.274;2023-07-31T02:01:59;10.60;;;9.90;;
42118;SDS011;27783;42.782;23.274;2023-07-31T02:04:27;11.43;;;10.35;;
42118;SDS011;27783;42.782;23.274;2023-07-31T02:09:22;10.80;;;10.00;;
42118;SDS011;27783;42.782;23.274;2023-07-31T02:11:47;11.07;;;10.27;;
42118;SDS011;27783;42.782;23.274;2023-07-31T02:14:14;11.35;;;10.55;;
42118;SDS011;27783;42.782;23.274;2023-07-31T02:16:40;12.07;;;11.20;;
42118;SDS011;27783;42.782;23.274;2023-07-31T02:19:07;12.00;;;11.18;;
42118;SDS011;27783;42.782;23.274;2023-07-31T02:21:33;12.07;;;11.20;;
42118;SDS011;27783;42.782;23.274;2023-07-31T02:23:59;12.00;;;11.18;;
42118;SDS011;27783;42.782;23.274;2023-07-31T02:26:25;11.40;;;10.63;;
42118;SDS011;27783;42.782;23.274;2023-07-31T02:28:57;13.60;;;12.48;;
42118;SDS011;27783;42.782;23.274;2023-07-31T02:31:23;15.00;;;13.98;;
42118;SDS011;27783;42.782;23.274;2023-07-31T02:33:50;15.15;;;14.02;;
42118;SDS011;27783;42.782;23.274;2023-07-31T02:36:15;14.40;;;13.38;;
42118;SDS011;27783;42.782;23.274;2023-07-31T02:38:42;17.42;;;16.20;;
42118;SDS011;27783;42.782;23.274;2023-07-31T02:41:08;19.23;;;17.77;;
42118;SDS011;27783;42.782;23.274;2023-07-31T02:43:36;18.63;;;17.30;;
42118;SDS011;27783;42.782;23.274;2023-07-31T02:46:02;17.85;;;16.55;;
42118;SDS011;27783;42.782;23.274;2023-07-31T02:48:28;18.98;;;17.58;;
42118;SDS011;27783;42.782;23.274;2023-07-31T02:51:00;19.23;;;17.98;;
42118;SDS011;27783;42.782;23.274;2023-07-31T02:53:25;20.42;;;18.92;;
42118;SDS011;27783;42.782;23.274;2023-07-31T02:55:50;21.50;;;19.58;;
42118;SDS011;27783;42.782;23.274;2023-07-31T02:58:16;20.42;;;19.10;;
42118;SDS011;27783;42.782;23.274;2023-07-31T03:00:42;22.52;;;20.48;;
42118;SDS011;27783;42.782;23.274;2023-07-31T03:03:09;25.30;;;23.38;;
42118;SDS011;27783;42.782;23.274;2023-07-31T03:05:34;23.80;;;22.05;;
42118;SDS011;27783;42.782;23.274;2023-07-31T03:08:01;24.10;;;22.48;;
42118;SDS011;27783;42.782;23.274;2023-07-31T03:10:26;24.75;;;22.73;;
42118;SDS011;27783;42.782;23.274;2023-07-31T03:12:52;25.50;;;23.52;;
42118;SDS011;27783;42.782;23.274;2023-07-31T03:15:19;26.38;;;24.45;;
42118;SDS011;27783;42.782;23.274;2023-07-31T03:17:44;27.58;;;25.27;;
42118;SDS011;27783;42.782;23.274;2023-07-31T03:20:10;25.70;;;23.75;;
42118;SDS011;27783;42.782;23.274;2023-07-31T03:22:39;28.48;;;26.23;;
42118;SDS011;27783;42.782;23.274;2023-07-31T03:25:06;27.67;;;25.42;;
42118;SDS011;27783;42.782;23.274;2023-07-31T03:27:35;26.13;;;24.13;;
42118;SDS011;27783;42.782;23.274;2023-07-31T03:30:02;29.77;;;27.23;;
42118;SDS011;27783;42.782;23.274;2023-07-31T03:32:48;33.20;;;30.27;;
42118;SDS011;27783;42.782;23.274;2023-07-31T03:35:14;27.42;;;25.33;;
42118;SDS011;27783;42.782;23.274;2023-07-31T03:37:39;30.30;;;28.00;;
42118;SDS011;27783;42.782;23.274;2023-07-31T03:40:07;32.65;;;29.73;;
42118;SDS011;27783;42.782;23.274;2023-07-31T03:42:33;34.53;;;31.98;;
42118;SDS011;27783;42.782;23.274;2023-07-31T03:44:59;36.83;;;33.38;;
42118;SDS011;27783;42.782;23.274;2023-07-31T03:47:26;35.08;;;32.13;;
42118;SDS011;27783;42.782;23.274;2023-07-31T03:50:13;38.58;;;35.42;;
42118;SDS011;27783;42.782;23.274;2023-07-31T03:52:40;39.28;;;35.83;;
42118;SDS011;27783;42.782;23.274;2023-07-31T03:57:32;38.58;;;35.47;;
42118;SDS011;27783;42.782;23.274;2023-07-31T03:59:57;39.15;;;35.40;;
42118;SDS011;27783;42.782;23.274;2023-07-31T04:02:23;39.40;;;35.97;;
42118;SDS011;27783;42.782;23.274;2023-07-31T04:04:51;43.20;;;39.45;;
42118;SDS011;27783;42.782;23.274;2023-07-31T04:07:16;41.28;;;37.75;;
42118;SDS011;27783;42.782;23.274;2023-07-31T04:12:11;42.28;;;38.30;;
42118;SDS011;27783;42.782;23.274;2023-07-31T04:14:40;73.22;;;66.63;;
42118;SDS011;27783;42.782;23.274;2023-07-31T04:17:06;130.55;;;118.50;;
42118;SDS011;27783;42.782;23.274;2023-07-31T04:19:34;39.20;;;35.95;;
42118;SDS011;27783;42.782;23.274;2023-07-31T04:24:47;40.38;;;36.83;;
42118;SDS011;27783;42.782;23.274;2023-07-31T04:29:46;43.95;;;39.95;;
42118;SDS011;27783;42.782;23.274;2023-07-31T04:32:12;42.40;;;38.42;;
42118;SDS011;27783;42.782;23.274;2023-07-31T04:37:06;40.38;;;36.80;;
42118;SDS011;27783;42.782;23.274;2023-07-31T04:39:31;41.40;;;37.70;;
42118;SDS011;27783;42.782;23.274;2023-07-31T04:41:56;40.13;;;36.45;;
42118;SDS011;27783;42.782;23.274;2023-07-31T04:44:22;41.40;;;37.60;;
42118;SDS011;27783;42.782;23.274;2023-07-31T04:46:47;42.00;;;38.55;;
42118;SDS011;27783;42.782;23.274;2023-07-31T04:49:12;38.17;;;34.95;;
42118;SDS011;27783;42.782;23.274;2023-07-31T04:51:38;37.90;;;34.58;;
42118;SDS011;27783;42.782;23.274;2023-07-31T04:54:03;38.08;;;34.95;;
42118;SDS011;27783;42.782;23.274;2023-07-31T04:56:28;37.55;;;34.50;;
42118;SDS011;27783;42.782;23.274;2023-07-31T04:58:54;37.38;;;34.35;;
42118;SDS011;27783;42.782;23.274;2023-07-31T05:01:20;33.05;;;30.38;;
42118;SDS011;27783;42.782;23.274;2023-07-31T05:03:45;32.75;;;29.98;;
42118;SDS011;27783;42.782;23.274;2023-07-31T05:06:11;31.55;;;28.92;;
42118;SDS011;27783;42.782;23.274;2023-07-31T05:08:37;31.85;;;29.35;;
42118;SDS011;27783;42.782;23.274;2023-07-31T05:11:02;29.92;;;27.45;;
42118;SDS011;27783;42.782;23.274;2023-07-31T05:13:28;28.70;;;26.58;;
42118;SDS011;27783;42.782;23.274;2023-07-31T05:15:53;27.42;;;25.27;;
42118;SDS011;27783;42.782;23.274;2023-07-31T05:18:19;27.38;;;25.23;;
42118;SDS011;27783;42.782;23.274;2023-07-31T05:20:44;24.80;;;22.65;;
42118;SDS011;27783;42.782;23.274;2023-07-31T05:23:09;22.25;;;20.52;;
42118;SDS011;27783;42.782;23.274;2023-07-31T05:25:35;21.08;;;19.40;;
42118;SDS011;27783;42.782;23.274;2023-07-31T05:28:00;18.77;;;17.58;;
42118;SDS011;27783;42.782;23.274;2023-07-31T05:30:25;17.90;;;16.48;;
42118;SDS011;27783;42.782;23.274;2023-07-31T05:32:51;16.55;;;15.35;;
42118;SDS011;27783;42.782;23.274;2023-07-31T05:35:17;15.95;;;14.70;;
42118;SDS011;27783;42.782;23.274;2023-07-31T05:37:42;16.40;;;14.93;;
42118;SDS011;27783;42.782;23.274;2023-07-31T05:40:07;16.13;;;15.02;;
42118;SDS011;27783;42.782;23.274;2023-07-31T05:42:33;15.43;;;14.35;;
42118;SDS011;27783;42.782;23.274;2023-07-31T05:44:59;15.07;;;14.02;;
42118;SDS011;27783;42.782;23.274;2023-07-31T05:47:25;16.02;;;14.82;;
42118;SDS011;27783;42.782;23.274;2023-07-31T05:49:50;15.27;;;14.00;;
42118;SDS011;27783;42.782;23.274;2023-07-31T05:52:18;14.65;;;13.55;;
42118;SDS011;27783;42.782;23.274;2023-07-31T05:54:44;13.40;;;12.40;;
42118;SDS011;27783;42.782;23.274;2023-07-31T05:57:11;13.40;;;12.50;;
42118;SDS011;27783;42.782;23.274;2023-07-31T05:59:36;12.38;;;11.38;;
42118;SDS011;27783;42.782;23.274;2023-07-31T06:02:02;12.77;;;10.65;;
42118;SDS011;27783;42.782;23.274;2023-07-31T06:04:27;11.52;;;10.43;;
42118;SDS011;27783;42.782;23.274;2023-07-31T06:06:53;13.52;;;12.43;;
42118;SDS011;27783;42.782;23.274;2023-07-31T06:09:19;9.38;;;8.68;;
42118;SDS011;27783;42.782;23.274;2023-07-31T06:11:45;9.75;;;9.05;;
42118;SDS011;27783;42.782;23.274;2023-07-31T06:14:11;9.65;;;8.95;;
42118;SDS011;27783;42.782;23.274;2023-07-31T06:16:36;9.50;;;8.70;;
42118;SDS011;27783;42.782;23.274;2023-07-31T06:19:02;10.10;;;8.18;;
42118;SDS011;27783;42.782;23.274;2023-07-31T06:21:27;9.15;;;7.50;;
42118;SDS011;27783;42.782;23.274;2023-07-31T06:23:53;8.40;;;7.82;;
42118;SDS011;27783;42.782;23.274;2023-07-31T06:26:18;7.53;;;7.03;;
42118;SDS011;27783;42.782;23.274;2023-07-31T06:28:44;7.53;;;6.80;;
42118;SDS011;27783;42.782;23.274;2023-07-31T06:31:09;7.32;;;6.60;;
42118;SDS011;27783;42.782;23.274;2023-07-31T06:33:34;7.85;;;7.25;;
42118;SDS011;27783;42.782;23.274;2023-07-31T06:36:00;7.03;;;6.45;;
42118;SDS011;27783;42.782;23.274;2023-07-31T06:38:26;6.95;;;6.32;;
42118;SDS011;27783;42.782;23.274;2023-07-31T06:40:52;6.20;;;5.60;;
42118;SDS011;27783;42.782;23.274;2023-07-31T06:43:17;5.85;;;5.40;;
42118;SDS011;27783;42.782;23.274;2023-07-31T06:45:43;8.43;;;6.65;;
42118;SDS011;27783;42.782;23.274;2023-07-31T06:48:09;6.93;;;6.35;;
42118;SDS011;27783;42.782;23.274;2023-07-31T06:50:34;5.35;;;4.95;;
42118;SDS011;27783;42.782;23.274;2023-07-31T06:53:00;8.00;;;5.70;;
42118;SDS011;27783;42.782;23.274;2023-07-31T06:55:25;8.32;;;5.70;;
42118;SDS011;27783;42.782;23.274;2023-07-31T06:57:51;6.15;;;5.68;;
42118;SDS011;27783;42.782;23.274;2023-07-31T07:00:19;5.40;;;5.00;;
42118;SDS011;27783;42.782;23.274;2023-07-31T07:02:45;5.45;;;4.88;;
42118;SDS011;27783;42.782;23.274;2023-07-31T07:05:14;5.40;;;4.90;;
42118;SDS011;27783;42.782;23.274;2023-07-31T07:07:40;4.07;;;3.78;;
42118;SDS011;27783;42.782;23.274;2023-07-31T07:10:06;6.30;;;4.47;;
42118;SDS011;27783;42.782;23.274;2023-07-31T07:12:32;5.47;;;4.97;;
42118;SDS011;27783;42.782;23.274;2023-07-31T07:14:58;7.57;;;4.82;;
42118;SDS011;27783;42.782;23.274;2023-07-31T07:17:25;5.07;;;4.68;;
42118;SDS011;27783;42.782;23.274;2023-07-31T07:19:51;4.63;;;4.28;;
42118;SDS011;27783;42.782;23.274;2023-07-31T07:22:17;5.72;;;4.78;;
42118;SDS011;27783;42.782;23.274;2023-07-31T07:24:43;4.72;;;4.40;;
42118;SDS011;27783;42.782;23.274;2023-07-31T07:27:08;6.35;;;4.55;;
42118;SDS011;27783;42.782;23.274;2023-07-31T07:29:34;4.65;;;4.35;;
42118;SDS011;27783;42.782;23.274;2023-07-31T07:32:00;6.20;;;4.30;;
42118;SDS011;27783;42.782;23.274;2023-07-31T07:34:26;4.45;;;4.15;;
42118;SDS011;27783;42.782;23.274;2023-07-31T07:36:52;5.22;;;4.45;;
42118;SDS011;27783;42.782;23.274;2023-07-31T07:39:18;4.50;;;4.10;;
42118;SDS011;27783;42.782;23.274;2023-07-31T07:41:43;4.43;;;4.10;;
42118;SDS011;27783;42.782;23.274;2023-07-31T07:44:08;3.85;;;3.65;;
42118;SDS011;27783;42.782;23.274;2023-07-31T07:46:34;3.47;;;3.17;;
42118;SDS011;27783;42.782;23.274;2023-07-31T07:48:59;4.30;;;3.80;;
42118;SDS011;27783;42.782;23.274;2023-07-31T07:51:25;3.88;;;3.45;;
42118;SDS011;27783;42.782;23.274;2023-07-31T07:53:50;7.05;;;3.55;;
42118;SDS011;27783;42.782;23.274;2023-07-31T07:56:16;3.38;;;3.08;;
42118;SDS011;27783;42.782;23.274;2023-07-31T07:58:41;3.25;;;3.05;;
42118;SDS011;27783;42.782;23.274;2023-07-31T08:01:07;3.25;;;2.95;;
42118;SDS011;27783;42.782;23.274;2023-07-31T08:03:32;5.03;;;3.03;;
42118;SDS011;27783;42.782;23.274;2023-07-31T08:05:58;4.20;;;3.13;;
42118;SDS011;27783;42.782;23.274;2023-07-31T08:08:24;3.22;;;2.92;;
42118;SDS011;27783;42.782;23.274;2023-07-31T08:10:51;3.70;;;3.40;;
42118;SDS011;27783;42.782;23.274;2023-07-31T08:13:16;3.20;;;3.00;;
42118;SDS011;27783;42.782;23.274;2023-07-31T08:15:42;3.30;;;2.80;;
42118;SDS011;27783;42.782;23.274;2023-07-31T08:18:08;4.28;;;3.00;;
42118;SDS011;27783;42.782;23.274;2023-07-31T08:20:33;3.10;;;2.78;;
42118;SDS011;27783;42.782;23.274;2023-07-31T08:22:59;4.53;;;2.72;;
42118;SDS011;27783;42.782;23.274;2023-07-31T08:25:24;3.45;;;2.92;;
42118;SDS011;27783;42.782;23.274;2023-07-31T08:27:50;4.07;;;3.45;;
42118;SDS011;27783;42.782;23.274;2023-07-31T08:30:17;3.13;;;2.83;;
42118;SDS011;27783;42.782;23.274;2023-07-31T08:32:43;4.25;;;2.95;;
42118;SDS011;27783;42.782;23.274;2023-07-31T08:35:09;3.22;;;3.03;;
42118;SDS011;27783;42.782;23.274;2023-07-31T08:37:34;2.83;;;2.63;;
42118;SDS011;27783;42.782;23.274;2023-07-31T08:40:00;4.75;;;2.80;;
42118;SDS011;27783;42.782;23.274;2023-07-31T08:42:25;3.13;;;2.30;;
42118;SDS011;27783;42.782;23.274;2023-07-31T08:44:51;2.35;;;2.15;;
42118;SDS011;27783;42.782;23.274;2023-07-31T08:47:17;3.35;;;2.67;;
42118;SDS011;27783;42.782;23.274;2023-07-31T08:49:45;4.40;;;2.72;;
42118;SDS011;27783;42.782;23.274;2023-07-31T08:52:12;2.97;;;2.70;;
42118;SDS011;27783;42.782;23.274;2023-07-31T08:54:38;2.65;;;2.45;;
42118;SDS011;27783;42.782;23.274;2023-07-31T08:57:04;2.72;;;2.53;;
42118;SDS011;27783;42.782;23.274;2023-07-31T08:59:31;2.75;;;2.55;;
42118;SDS011;27783;42.782;23.274;2023-07-31T09:02:01;6.38;;;2.83;;
42118;SDS011;27783;42.782;23.274;2023-07-31T09:04:30;3.22;;;2.97;;
42118;SDS011;27783;42.782;23.274;2023-07-31T09:06:57;2.38;;;2.17;;
42118;SDS011;27783;42.782;23.274;2023-07-31T09:09:25;2.40;;;2.15;;
42118;SDS011;27783;42.782;23.274;2023-07-31T09:11:51;5.28;;;2.53;;
42118;SDS011;27783;42.782;23.274;2023-07-31T09:14:17;3.08;;;2.25;;
42118;SDS011;27783;42.782;23.274;2023-07-31T09:16:56;2.22;;;2.03;;
42118;SDS011;27783;42.782;23.274;2023-07-31T09:19:25;2.30;;;1.90;;
42118;SDS011;27783;42.782;23.274;2023-07-31T09:21:52;2.28;;;2.08;;
42118;SDS011;27783;42.782;23.274;2023-07-31T09:24:30;3.05;;;2.03;;
42118;SDS011;27783;42.782;23.274;2023-07-31T09:26:57;1.95;;;1.85;;
42118;SDS011;27783;42.782;23.274;2023-07-31T09:29:24;4.38;;;2.28;;
42118;SDS011;27783;42.782;23.274;2023-07-31T09:31:51;2.58;;;1.90;;
42118;SDS011;27783;42.782;23.274;2023-07-31T09:34:17;2.47;;;2.13;;
42118;SDS011;27783;42.782;23.274;2023-07-31T09:36:44;5.45;;;1.80;;
42118;SDS011;27783;42.782;23.274;2023-07-31T09:39:11;3.03;;;1.58;;
42118;SDS011;27783;42.782;23.274;2023-07-31T09:41:41;2.00;;;1.80;;
42118;SDS011;27783;42.782;23.274;2023-07-31T09:44:08;1.85;;;1.75;;
42118;SDS011;27783;42.782;23.274;2023-07-31T09:46:37;1.92;;;1.55;;
42118;SDS011;27783;42.782;23.274;2023-07-31T09:49:10;2.33;;;1.40;;
42118;SDS011;27783;42.782;23.274;2023-07-31T09:51:40;1.88;;;1.40;;
42118;SDS011;27783;42.782;23.274;2023-07-31T09:54:16;2.42;;;1.80;;
42118;SDS011;27783;42.782;23.274;2023-07-31T09:56:43;2.60;;;1.40;;
42118;SDS011;27783;42.782;23.274;2023-07-31T10:01:39;1.42;;;1.33;;
42118;SDS011;27783;42.782;23.274;2023-07-31T10:04:07;2.67;;;2.20;;
42118;SDS011;27783;42.782;23.274;2023-07-31T10:06:34;1.73;;;1.45;;
42118;SDS011;27783;42.782;23.274;2023-07-31T10:09:01;1.67;;;1.58;;
42118;SDS011;27783;42.782;23.274;2023-07-31T10:11:59;2.22;;;1.30;;
42118;SDS011;27783;42.782;23.274;2023-07-31T10:14:27;2.20;;;1.80;;
42118;SDS011;27783;42.782;23.274;2023-07-31T10:16:53;2.17;;;1.35;;
42118;SDS011;27783;42.782;23.274;2023-07-31T10:19:20;3.05;;;1.40;;
42118;SDS011;27783;42.782;23.274;2023-07-31T10:21:48;3.35;;;1.40;;
42118;SDS011;27783;42.782;23.274;2023-07-31T10:24:13;2.08;;;1.88;;
42118;SDS011;27783;42.782;23.274;2023-07-31T10:26:40;2.42;;;1.58;;
42118;SDS011;27783;42.782;23.274;2023-07-31T10:29:06;2.70;;;1.90;;
42118;SDS011;27783;42.782;23.274;2023-07-31T10:31:32;1.60;;;1.50;;
42118;SDS011;27783;42.782;23.274;2023-07-31T10:33:59;1.80;;;1.48;;
42118;SDS011;27783;42.782;23.274;2023-07-31T10:36:25;1.88;;;1.30;;
42118;SDS011;27783;42.782;23.274;2023-07-31T10:38:52;1.40;;;1.30;;
42118;SDS011;27783;42.782;23.274;2023-07-31T10:41:17;2.90;;;1.58;;
42118;SDS011;27783;42.782;23.274;2023-07-31T10:43:45;1.33;;;1.23;;
42118;SDS011;27783;42.782;23.274;2023-07-31T10:46:11;1.33;;;1.23;;
42118;SDS011;27783;42.782;23.274;2023-07-31T10:48:39;1.52;;;1.42;;
42118;SDS011;27783;42.782;23.274;2023-07-31T10:53:38;3.67;;;1.50;;
42118;SDS011;27783;42.782;23.274;2023-07-31T10:56:06;3.20;;;1.60;;
42118;SDS011;27783;42.782;23.274;2023-07-31T10:58:39;1.42;;;1.33;;
42118;SDS011;27783;42.782;23.274;2023-07-31T11:01:05;1.55;;;1.13;;
42118;SDS011;27783;42.782;23.274;2023-07-31T11:06:14;1.42;;;1.33;;
42118;SDS011;27783;42.782;23.274;2023-07-31T11:11:14;1.23;;;1.13;;
42118;SDS011;27783;42.782;23.274;2023-07-31T11:16:21;2.23;;;1.57;;
42118;SDS011;27783;42.782;23.274;2023-07-31T11:18:48;5.63;;;1.60;;
42118;SDS011;27783;42.782;23.274;2023-07-31T11:21:18;3.08;;;1.95;;
42118;SDS011;27783;42.782;23.274;2023-07-31T11:23:46;6.35;;;2.08;;
42118;SDS011;27783;42.782;23.274;2023-07-31T11:26:13;2.45;;;1.83;;
42118;SDS011;27783;42.782;23.274;2023-07-31T11:28:39;2.38;;;1.58;;
42118;SDS011;27783;42.782;23.274;2023-07-31T11:31:08;3.50;;;1.60;;
42118;SDS011;27783;42.782;23.274;2023-07-31T11:33:34;2.85;;;1.88;;
42118;SDS011;27783;42.782;23.274;2023-07-31T11:36:00;3.15;;;1.67;;
42118;SDS011;27783;42.782;23.274;2023-07-31T11:38:26;2.58;;;1.80;;
42118;SDS011;27783;42.782;23.274;2023-07-31T11:40:52;3.05;;;1.70;;
42118;SDS011;27783;42.782;23.274;2023-07-31T11:43:19;2.88;;;1.92;;
42118;SDS011;27783;42.782;23.274;2023-07-31T11:45:49;4.00;;;1.80;;
42118;SDS011;27783;42.782;23.274;2023-07-31T11:48:23;2.60;;;1.88;;
42118;SDS011;27783;42.782;23.274;2023-07-31T11:50:54;3.38;;;2.38;;
42118;SDS011;27783;42.782;23.274;2023-07-31T11:56:08;3.75;;;3.40;;
42118;SDS011;27783;42.782;23.274;2023-07-31T11:58:37;6.20;;;5.70;;
42118;SDS011;27783;42.782;23.274;2023-07-31T12:01:03;5.88;;;5.38;;
42118;SDS011;27783;42.782;23.274;2023-07-31T12:03:30;6.28;;;5.80;;
42118;SDS011;27783;42.782;23.274;2023-07-31T12:05:57;6.25;;;5.60;;
42118;SDS011;27783;42.782;23.274;2023-07-31T12:08:23;6.03;;;5.22;;
42118;SDS011;27783;42.782;23.274;2023-07-31T12:10:50;6.93;;;4.63;;
42118;SDS011;27783;42.782;23.274;2023-07-31T12:13:23;5.25;;;4.75;;
42118;SDS011;27783;42.782;23.274;2023-07-31T12:15:54;5.82;;;5.13;;
42118;SDS011;27783;42.782;23.274;2023-07-31T12:18:22;5.32;;;4.82;;
42118;SDS011;27783;42.782;23.274;2023-07-31T12:20:49;4.30;;;3.90;;
42118;SDS011;27783;42.782;23.274;2023-07-31T12:23:23;4.43;;;3.83;;
42118;SDS011;27783;42.782;23.274;2023-07-31T12:31:00;5.25;;;4.32;;
42118;SDS011;27783;42.782;23.274;2023-07-31T12:33:30;5.32;;;5.00;;
42118;SDS011;27783;42.782;23.274;2023-07-31T12:35:57;5.40;;;5.00;;
42118;SDS011;27783;42.782;23.274;2023-07-31T12:38:23;5.50;;;5.10;;
42118;SDS011;27783;42.782;23.274;2023-07-31T12:40:48;5.47;;;5.05;;
42118;SDS011;27783;42.782;23.274;2023-07-31T12:43:14;9.27;;;6.07;;
42118;SDS011;27783;42.782;23.274;2023-07-31T12:45:39;5.25;;;4.85;;
42118;SDS011;27783;42.782;23.274;2023-07-31T12:48:05;5.80;;;5.40;;
42118;SDS011;27783;42.782;23.274;2023-07-31T12:50:30;5.38;;;4.88;;
42118;SDS011;27783;42.782;23.274;2023-07-31T12:52:56;4.57;;;4.10;;
42118;SDS011;27783;42.782;23.274;2023-07-31T12:55:22;4.35;;;4.05;;
42118;SDS011;27783;42.782;23.274;2023-07-31T12:57:48;4.65;;;4.35;;
42118;SDS011;27783;42.782;23.274;2023-07-31T13:00:14;6.03;;;4.30;;
42118;SDS011;27783;42.782;23.274;2023-07-31T13:02:39;5.18;;;4.68;;
42118;SDS011;27783;42.782;23.274;2023-07-31T13:05:05;4.25;;;3.95;;
42118;SDS011;27783;42.782;23.274;2023-07-31T13:07:30;4.13;;;3.92;;
42118;SDS011;27783;42.782;23.274;2023-07-31T13:09:56;4.13;;;3.83;;
42118;SDS011;27783;42.782;23.274;2023-07-31T13:12:24;4.00;;;3.70;;
42118;SDS011;27783;42.782;23.274;2023-07-31T13:14:53;4.15;;;3.75;;
42118;SDS011;27783;42.782;23.274;2023-07-31T13:17:19;4.07;;;3.80;;
42118;SDS011;27783;42.782;23.274;2023-07-31T13:19:44;3.92;;;3.72;;
42118;SDS011;27783;42.782;23.274;2023-07-31T13:22:10;4.30;;;4.00;;
42118;SDS011;27783;42.782;23.274;2023-07-31T13:24:35;3.67;;;3.38;;
42118;SDS011;27783;42.782;23.274;2023-07-31T13:27:01;4.80;;;4.40;;
42118;SDS011;27783;42.782;23.274;2023-07-31T13:29:26;4.07;;;3.70;;
42118;SDS011;27783;42.782;23.274;2023-07-31T13:31:52;3.83;;;3.53;;
42118;SDS011;27783;42.782;23.274;2023-07-31T13:34:18;8.05;;;4.60;;
42118;SDS011;27783;42.782;23.274;2023-07-31T13:36:43;4.05;;;3.75;;
42118;SDS011;27783;42.782;23.274;2023-07-31T13:39:09;4.40;;;4.00;;
42118;SDS011;27783;42.782;23.274;2023-07-31T13:41:35;4.43;;;4.03;;
42118;SDS011;27783;42.782;23.274;2023-07-31T13:44:01;3.75;;;3.45;;
42118;SDS011;27783;42.782;23.274;2023-07-31T13:46:27;3.65;;;3.35;;
42118;SDS011;27783;42.782;23.274;2023-07-31T13:48:53;4.25;;;3.88;;
42118;SDS011;27783;42.782;23.274;2023-07-31T13:51:20;4.20;;;3.80;;
42118;SDS011;27783;42.782;23.274;2023-07-31T13:53:48;4.57;;;4.07;;
42118;SDS011;27783;42.782;23.274;2023-07-31T13:56:14;3.83;;;3.53;;
42118;SDS011;27783;42.782;23.274;2023-07-31T13:58:39;3.95;;;3.65;;
42118;SDS011;27783;42.782;23.274;2023-07-31T14:01:04;3.88;;;3.67;;
42118;SDS011;27783;42.782;23.274;2023-07-31T14:03:30;3.47;;;3.28;;
42118;SDS011;27783;42.782;23.274;2023-07-31T14:05:56;4.22;;;3.67;;
42118;SDS011;27783;42.782;23.274;2023-07-31T14:08:21;3.30;;;2.85;;
42118;SDS011;27783;42.782;23.274;2023-07-31T14:10:47;3.05;;;2.85;;
42118;SDS011;27783;42.782;23.274;2023-07-31T14:13:12;3.28;;;3.00;;
42118;SDS011;27783;42.782;23.274;2023-07-31T14:15:39;4.82;;;2.80;;
42118;SDS011;27783;42.782;23.274;2023-07-31T14:18:06;4.20;;;3.50;;
42118;SDS011;27783;42.782;23.274;2023-07-31T14:20:32;3.42;;;3.22;;
42118;SDS011;27783;42.782;23.274;2023-07-31T14:22:57;2.40;;;2.20;;
42118;SDS011;27783;42.782;23.274;2023-07-31T14:25:23;3.25;;;2.97;;
42118;SDS011;27783;42.782;23.274;2023-07-31T14:27:49;2.70;;;2.45;;
42118;SDS011;27783;42.782;23.274;2023-07-31T14:30:14;3.80;;;3.50;;
42118;SDS011;27783;42.782;23.274;2023-07-31T14:32:40;3.50;;;3.20;;
42118;SDS011;27783;42.782;23.274;2023-07-31T14:35:05;3.13;;;2.83;;
42118;SDS011;27783;42.782;23.274;2023-07-31T14:37:37;3.97;;;3.17;;
42118;SDS011;27783;42.782;23.274;2023-07-31T14:40:04;3.13;;;2.50;;
42118;SDS011;27783;42.782;23.274;2023-07-31T14:42:30;3.00;;;2.80;;
42118;SDS011;27783;42.782;23.274;2023-07-31T14:44:55;3.00;;;2.70;;
42118;SDS011;27783;42.782;23.274;2023-07-31T14:47:21;3.92;;;2.65;;
42118;SDS011;27783;42.782;23.274;2023-07-31T14:49:46;2.90;;;2.58;;
42118;SDS011;27783;42.782;23.274;2023-07-31T14:52:11;2.38;;;2.20;;
42118;SDS011;27783;42.782;23.274;2023-07-31T14:54:37;2.92;;;2.20;;
42118;SDS011;27783;42.782;23.274;2023-07-31T14:57:02;1.90;;;1.80;;
42118;SDS011;27783;42.782;23.274;2023-07-31T14:59:28;2.70;;;2.33;;
42118;SDS011;27783;42.782;23.274;2023-07-31T15:01:53;2.20;;;1.88;;
42118;SDS011;27783;42.782;23.274;2023-07-31T15:04:18;1.90;;;1.80;;
42118;SDS011;27783;42.782;23.274;2023-07-31T15:06:44;8.48;;;2.47;;
42118;SDS011;27783;42.782;23.274;2023-07-31T15:09:09;3.10;;;1.90;;
42118;SDS011;27783;42.782;23.274;2023-07-31T15:11:34;3.60;;;2.00;;